sensor_id;sensor_type;location;lat;lon;timestamp;pressure;altitude;pressure_sealevel;temperature;humidity
22481;BME280;11407;56.964;-2.212;2022-09-01T00:02:06;102835.59;;;18.36;41.89
22481;BME280;11407;56.964;-2.212;2022-09-01T00:04:35;102840.50;;;18.42;42.05
22481;BME280;11407;56.964;-2.212;2022-09-01T00:07:07;102822.50;;;18.79;41.38
22481;BME280;11407;56.964;-2.212;2022-09-01T00:09:34;102831.13;;;18.82;41.06
22481;BME280;11407;56.964;-2.212;2022-09-01T00:12:00;102824.59;;;18.52;41.31
22481;BME280;11407;56.964;-2.212;2022-09-01T00:14:29;102828.91;;;18.65;41.34
22481;BME280;11407;56.964;-2.212;2022-09-01T00:16:56;102822.00;;;18.63;41.09
22481;BME280;11407;56.964;-2.212;2022-09-01T00:19:22;102823.56;;;18.65;41.22
22481;BME280;11407;56.964;-2.212;2022-09-01T00:21:48;102824.31;;;18.67;40.76
22481;BME280;11407;56.964;-2.212;2022-09-01T00:24:15;102821.47;;;18.92;40.40
22481;BME280;11407;56.964;-2.212;2022-09-01T00:26:42;102818.06;;;18.90;40.25
22481;BME280;11407;56.964;-2.212;2022-09-01T00:29:07;102818.44;;;18.97;40.31
22481;BME280;11407;56.964;-2.212;2022-09-01T00:31:33;102812.13;;;18.98;39.93
22481;BME280;11407;56.964;-2.212;2022-09-01T00:33:59;102814.06;;;18.96;39.88
22481;BME280;11407;56.964;-2.212;2022-09-01T00:36:25;102812.66;;;18.68;40.48
22481;BME280;11407;56.964;-2.212;2022-09-01T00:38:51;102807.03;;;18.60;41.03
22481;BME280;11407;56.964;-2.212;2022-09-01T00:41:20;102811.25;;;18.52;41.15
22481;BME280;11407;56.964;-2.212;2022-09-01T00:43:51;102811.50;;;18.49;41.32
22481;BME280;11407;56.964;-2.212;2022-09-01T00:46:23;102810.53;;;18.50;41.82
22481;BME280;11407;56.964;-2.212;2022-09-01T00:48:53;102808.31;;;18.44;41.49
22481;BME280;11407;56.964;-2.212;2022-09-01T00:51:20;102809.53;;;18.40;41.38
22481;BME280;11407;56.964;-2.212;2022-09-01T00:53:46;102810.50;;;18.39;41.11
22481;BME280;11407;56.964;-2.212;2022-09-01T00:56:12;102807.47;;;18.43;41.31
22481;BME280;11407;56.964;-2.212;2022-09-01T00:58:38;102798.72;;;18.41;41.11
22481;BME280;11407;56.964;-2.212;2022-09-01T01:01:10;102803.09;;;18.42;41.36
22481;BME280;11407;56.964;-2.212;2022-09-01T01:03:39;102798.22;;;18.36;41.20
22481;BME280;11407;56.964;-2.212;2022-09-01T01:06:12;102792.47;;;18.53;40.77
22481;BME280;11407;56.964;-2.212;2022-09-01T01:08:42;102797.78;;;18.53;40.92
22481;BME280;11407;56.964;-2.212;2022-09-01T01:11:15;102792.28;;;18.44;40.91
22481;BME280;11407;56.964;-2.212;2022-09-01T01:14:03;102792.19;;;18.45;42.06
22481;BME280;11407;56.964;-2.212;2022-09-01T01:16:40;102787.53;;;18.36;41.48
22481;BME280;11407;56.964;-2.212;2022-09-01T01:22:33;102784.06;;;18.47;41.89
22481;BME280;11407;56.964;-2.212;2022-09-01T01:25:17;102785.59;;;18.38;41.34
22481;BME280;11407;56.964;-2.212;2022-09-01T01:27:43;102780.75;;;18.32;41.33
22481;BME280;11407;56.964;-2.212;2022-09-01T01:30:10;102782.84;;;18.40;41.44
22481;BME280;11407;56.964;-2.212;2022-09-01T01:32:37;102777.50;;;18.40;41.19
22481;BME280;11407;56.964;-2.212;2022-09-01T01:35:08;102775.13;;;18.35;40.79
22481;BME280;11407;56.964;-2.212;2022-09-01T01:37:38;102769.19;;;18.32;41.56
22481;BME280;11407;56.964;-2.212;2022-09-01T01:40:03;102768.84;;;18.36;41.19
22481;BME280;11407;56.964;-2.212;2022-09-01T01:42:32;102773.97;;;18.39;41.42
22481;BME280;11407;56.964;-2.212;2022-09-01T01:44:57;102767.75;;;18.28;41.22
22481;BME280;11407;56.964;-2.212;2022-09-01T01:47:23;102772.34;;;18.26;41.56
22481;BME280;11407;56.964;-2.212;2022-09-01T01:49:49;102764.56;;;18.23;41.39
22481;BME280;11407;56.964;-2.212;2022-09-01T01:52:14;102767.97;;;18.25;41.50
22481;BME280;11407;56.964;-2.212;2022-09-01T01:54:42;102758.88;;;18.27;41.57
22481;BME280;11407;56.964;-2.212;2022-09-01T01:57:10;102763.03;;;18.19;41.39
22481;BME280;11407;56.964;-2.212;2022-09-01T01:59:36;102761.25;;;18.19;41.43
22481;BME280;11407;56.964;-2.212;2022-09-01T02:02:05;102755.78;;;18.21;41.70
22481;BME280;11407;56.964;-2.212;2022-09-01T02:04:34;102759.94;;;18.25;41.71
22481;BME280;11407;56.964;-2.212;2022-09-01T02:06:59;102751.81;;;18.26;41.31
22481;BME280;11407;56.964;-2.212;2022-09-01T02:09:25;102749.88;;;18.28;40.87
22481;BME280;11407;56.964;-2.212;2022-09-01T02:11:51;102750.06;;;18.38;41.09
22481;BME280;11407;56.964;-2.212;2022-09-01T02:14:20;102748.81;;;18.42;40.97
22481;BME280;11407;56.964;-2.212;2022-09-01T02:16:46;102753.09;;;18.44;41.06
22481;BME280;11407;56.964;-2.212;2022-09-01T02:19:12;102744.06;;;18.34;41.11
22481;BME280;11407;56.964;-2.212;2022-09-01T02:21:38;102744.06;;;18.34;41.77
22481;BME280;11407;56.964;-2.212;2022-09-01T02:24:08;102735.34;;;18.32;41.65
22481;BME280;11407;56.964;-2.212;2022-09-01T02:26:38;102740.22;;;18.38;41.91
22481;BME280;11407;56.964;-2.212;2022-09-01T02:29:10;102741.78;;;18.41;42.31
22481;BME280;11407;56.964;-2.212;2022-09-01T02:31:43;102735.81;;;18.26;42.48
22481;BME280;11407;56.964;-2.212;2022-09-01T02:34:09;102741.66;;;18.31;42.17
22481;BME280;11407;56.964;-2.212;2022-09-01T02:36:39;102736.19;;;18.33;42.30
22481;BME280;11407;56.964;-2.212;2022-09-01T02:39:09;102736.25;;;18.20;42.69
22481;BME280;11407;56.964;-2.212;2022-09-01T02:41:35;102734.91;;;18.15;42.76
22481;BME280;11407;56.964;-2.212;2022-09-01T02:44:04;102740.31;;;18.26;42.30
22481;BME280;11407;56.964;-2.212;2022-09-01T02:46:40;102738.50;;;18.37;42.18
22481;BME280;11407;56.964;-2.212;2022-09-01T02:49:12;102733.03;;;18.28;42.56
22481;BME280;11407;56.964;-2.212;2022-09-01T02:51:48;102735.84;;;18.48;41.91
22481;BME280;11407;56.964;-2.212;2022-09-01T02:54:19;102730.50;;;18.37;41.79
22481;BME280;11407;56.964;-2.212;2022-09-01T02:56:47;102732.56;;;18.34;41.49
22481;BME280;11407;56.964;-2.212;2022-09-01T02:59:18;102722.84;;;18.33;42.06
22481;BME280;11407;56.964;-2.212;2022-09-01T03:01:47;102726.34;;;18.22;41.42
22481;BME280;11407;56.964;-2.212;2022-09-01T03:04:13;102732.38;;;18.24;41.70
22481;BME280;11407;56.964;-2.212;2022-09-01T03:06:40;102718.63;;;18.18;41.19
22481;BME280;11407;56.964;-2.212;2022-09-01T03:09:08;102718.63;;;18.18;41.34
22481;BME280;11407;56.964;-2.212;2022-09-01T03:11:38;102725.19;;;18.14;41.68
22481;BME280;11407;56.964;-2.212;2022-09-01T03:14:04;102716.66;;;18.09;41.63
22481;BME280;11407;56.964;-2.212;2022-09-01T03:16:31;102712.09;;;17.88;42.03
22481;BME280;11407;56.964;-2.212;2022-09-01T03:18:57;102720.03;;;17.77;42.18
22481;BME280;11407;56.964;-2.212;2022-09-01T03:21:23;102712.50;;;17.71;42.58
22481;BME280;11407;56.964;-2.212;2022-09-01T03:23:50;102712.50;;;17.71;42.56
22481;BME280;11407;56.964;-2.212;2022-09-01T03:26:18;102712.63;;;17.69;42.29
22481;BME280;11407;56.964;-2.212;2022-09-01T03:28:47;102712.50;;;17.71;42.30
22481;BME280;11407;56.964;-2.212;2022-09-01T03:31:13;102705.66;;;17.67;42.44
22481;BME280;11407;56.964;-2.212;2022-09-01T03:33:38;102703.75;;;17.69;42.12
22481;BME280;11407;56.964;-2.212;2022-09-01T03:36:05;102704.69;;;17.68;42.54
22481;BME280;11407;56.964;-2.212;2022-09-01T03:38:30;102701.06;;;17.69;42.35
22481;BME280;11407;56.964;-2.212;2022-09-01T03:41:01;102695.19;;;17.76;42.71
22481;BME280;11407;56.964;-2.212;2022-09-01T03:43:29;102702.66;;;17.71;41.99
22481;BME280;11407;56.964;-2.212;2022-09-01T03:45:56;102702.66;;;17.71;42.03
22481;BME280;11407;56.964;-2.212;2022-09-01T03:48:25;102695.66;;;17.70;42.07
22481;BME280;11407;56.964;-2.212;2022-09-01T03:50:55;102696.69;;;17.68;42.04
22481;BME280;11407;56.964;-2.212;2022-09-01T03:53:22;102696.31;;;17.61;42.40
22481;BME280;11407;56.964;-2.212;2022-09-01T03:55:49;102700.06;;;17.59;42.34
22481;BME280;11407;56.964;-2.212;2022-09-01T03:58:17;102698.47;;;17.56;42.26
22481;BME280;11407;56.964;-2.212;2022-09-01T04:00:49;102700.53;;;17.53;42.40
22481;BME280;11407;56.964;-2.212;2022-09-01T04:03:15;102693.91;;;17.46;42.32
22481;BME280;11407;56.964;-2.212;2022-09-01T04:05:46;102703.22;;;17.40;42.86
22481;BME280;11407;56.964;-2.212;2022-09-01T04:08:12;102693.09;;;17.45;42.19
22481;BME280;11407;56.964;-2.212;2022-09-01T04:10:47;102694.44;;;17.51;42.28
22481;BME280;11407;56.964;-2.212;2022-09-01T04:13:18;102691.88;;;17.49;42.16
22481;BME280;11407;56.964;-2.212;2022-09-01T04:15:45;102692.97;;;17.47;42.15
22481;BME280;11407;56.964;-2.212;2022-09-01T04:18:11;102684.38;;;17.31;42.67
22481;BME280;11407;56.964;-2.212;2022-09-01T04:20:47;102684.06;;;17.35;42.87
22481;BME280;11407;56.964;-2.212;2022-09-01T04:25:41;102684.34;;;17.43;42.40
22481;BME280;11407;56.964;-2.212;2022-09-01T04:28:06;102685.44;;;17.41;42.32
22481;BME280;11407;56.964;-2.212;2022-09-01T04:30:38;102679.09;;;17.42;42.59
22481;BME280;11407;56.964;-2.212;2022-09-01T04:33:07;102686.38;;;17.40;42.51
22481;BME280;11407;56.964;-2.212;2022-09-01T04:35:39;102682.16;;;17.48;43.05
22481;BME280;11407;56.964;-2.212;2022-09-01T04:38:05;102680.72;;;17.44;42.46
22481;BME280;11407;56.964;-2.212;2022-09-01T04:40:36;102683.81;;;17.38;42.34
22481;BME280;11407;56.964;-2.212;2022-09-01T04:43:04;102681.06;;;17.40;42.45
22481;BME280;11407;56.964;-2.212;2022-09-01T04:45:29;102674.97;;;17.38;42.34
22481;BME280;11407;56.964;-2.212;2022-09-01T04:47:56;102680.66;;;17.33;42.46
22481;BME280;11407;56.964;-2.212;2022-09-01T04:50:23;102672.88;;;17.18;42.83
22481;BME280;11407;56.964;-2.212;2022-09-01T04:52:51;102678.22;;;17.18;43.12
22481;BME280;11407;56.964;-2.212;2022-09-01T04:55:20;102679.81;;;17.08;43.12
22481;BME280;11407;56.964;-2.212;2022-09-01T04:57:47;102688.56;;;17.10;43.05
22481;BME280;11407;56.964;-2.212;2022-09-01T05:00:19;102676.72;;;17.14;43.56
22481;BME280;11407;56.964;-2.212;2022-09-01T05:02:49;102671.19;;;17.05;43.45
22481;BME280;11407;56.964;-2.212;2022-09-01T05:05:17;102672.00;;;17.17;43.10
22481;BME280;11407;56.964;-2.212;2022-09-01T05:07:43;102668.19;;;17.21;42.87
22481;BME280;11407;56.964;-2.212;2022-09-01T05:10:08;102668.81;;;17.25;42.68
22481;BME280;11407;56.964;-2.212;2022-09-01T05:12:34;102672.00;;;17.17;43.08
22481;BME280;11407;56.964;-2.212;2022-09-01T05:15:00;102674.47;;;17.20;42.71
22481;BME280;11407;56.964;-2.212;2022-09-01T05:17:28;102672.47;;;17.12;43.13
22481;BME280;11407;56.964;-2.212;2022-09-01T05:19:53;102673.09;;;17.15;42.89
22481;BME280;11407;56.964;-2.212;2022-09-01T05:22:20;102668.69;;;17.26;42.96
22481;BME280;11407;56.964;-2.212;2022-09-01T05:24:46;102669.41;;;17.05;43.44
22481;BME280;11407;56.964;-2.212;2022-09-01T05:27:11;102664.56;;;17.10;43.34
22481;BME280;11407;56.964;-2.212;2022-09-01T05:29:38;102662.53;;;17.14;43.16
22481;BME280;11407;56.964;-2.212;2022-09-01T05:32:06;102670.72;;;17.23;43.15
22481;BME280;11407;56.964;-2.212;2022-09-01T05:34:34;102668.69;;;17.26;42.95
22481;BME280;11407;56.964;-2.212;2022-09-01T05:37:02;102677.25;;;17.31;43.22
22481;BME280;11407;56.964;-2.212;2022-09-01T05:39:27;102670.47;;;17.38;42.91
22481;BME280;11407;56.964;-2.212;2022-09-01T05:41:53;102678.78;;;17.46;42.82
22481;BME280;11407;56.964;-2.212;2022-09-01T05:44:22;102680.50;;;17.47;43.06
22481;BME280;11407;56.964;-2.212;2022-09-01T05:46:48;102684.91;;;17.36;43.61
22481;BME280;11407;56.964;-2.212;2022-09-01T05:49:14;102681.06;;;17.40;43.14
22481;BME280;11407;56.964;-2.212;2022-09-01T05:51:42;102677.72;;;17.36;43.27
22481;BME280;11407;56.964;-2.212;2022-09-01T05:54:08;102678.44;;;17.51;42.82
22481;BME280;11407;56.964;-2.212;2022-09-01T05:56:35;102683.25;;;17.46;43.39
22481;BME280;11407;56.964;-2.212;2022-09-01T05:59:04;102675.78;;;17.51;43.11
22481;BME280;11407;56.964;-2.212;2022-09-01T06:01:30;102681.00;;;17.52;43.05
22481;BME280;11407;56.964;-2.212;2022-09-01T06:03:59;102675.09;;;17.60;42.79
22481;BME280;11407;56.964;-2.212;2022-09-01T06:06:27;102675.50;;;17.66;43.10
22481;BME280;11407;56.964;-2.212;2022-09-01T06:08:53;102674.13;;;17.61;43.20
22481;BME280;11407;56.964;-2.212;2022-09-01T06:11:25;102675.53;;;17.77;42.91
22481;BME280;11407;56.964;-2.212;2022-09-01T06:13:52;102685.34;;;17.77;42.83
22481;BME280;11407;56.964;-2.212;2022-09-01T06:16:22;102678.00;;;17.80;43.05
22481;BME280;11407;56.964;-2.212;2022-09-01T06:18:49;102683.19;;;17.82;43.17
22481;BME280;11407;56.964;-2.212;2022-09-01T06:21:18;102680.53;;;17.82;43.05
22481;BME280;11407;56.964;-2.212;2022-09-01T06:23:44;102681.31;;;17.95;42.83
22481;BME280;11407;56.964;-2.212;2022-09-01T06:26:24;102673.38;;;18.16;43.12
22481;BME280;11407;56.964;-2.212;2022-09-01T06:28:58;102683.81;;;18.19;43.16
22481;BME280;11407;56.964;-2.212;2022-09-01T06:31:29;102676.78;;;18.18;42.74
22481;BME280;11407;56.964;-2.212;2022-09-01T06:33:59;102674.94;;;18.19;42.71
22481;BME280;11407;56.964;-2.212;2022-09-01T06:36:26;102679.75;;;18.26;42.55
22481;BME280;11407;56.964;-2.212;2022-09-01T06:38:52;102674.31;;;18.28;42.76
22481;BME280;11407;56.964;-2.212;2022-09-01T06:41:20;102674.53;;;18.25;43.14
22481;BME280;11407;56.964;-2.212;2022-09-01T06:43:47;102665.56;;;18.37;42.85
22481;BME280;11407;56.964;-2.212;2022-09-01T06:46:14;102666.56;;;18.47;42.96
22481;BME280;11407;56.964;-2.212;2022-09-01T06:48:40;102669.34;;;18.45;43.28
22481;BME280;11407;56.964;-2.212;2022-09-01T06:51:16;102672.03;;;18.45;43.58
22481;BME280;11407;56.964;-2.212;2022-09-01T06:53:43;102663.53;;;18.84;42.97
22481;BME280;11407;56.964;-2.212;2022-09-01T06:56:10;102667.19;;;18.83;43.33
22481;BME280;11407;56.964;-2.212;2022-09-01T06:58:39;102654.41;;;18.87;43.17
22481;BME280;11407;56.964;-2.212;2022-09-01T07:01:09;102656.47;;;18.94;43.30
22481;BME280;11407;56.964;-2.212;2022-09-01T07:03:40;102655.03;;;19.01;43.25
22481;BME280;11407;56.964;-2.212;2022-09-01T07:06:06;102664.88;;;19.11;43.15
22481;BME280;11407;56.964;-2.212;2022-09-01T07:08:31;102654.44;;;19.19;43.44
22481;BME280;11407;56.964;-2.212;2022-09-01T07:11:13;102663.75;;;19.36;42.95
22481;BME280;11407;56.964;-2.212;2022-09-01T07:13:40;102657.28;;;19.38;43.16
22481;BME280;11407;56.964;-2.212;2022-09-01T07:16:06;102655.13;;;19.43;43.45
22481;BME280;11407;56.964;-2.212;2022-09-01T07:18:32;102651.19;;;19.47;43.45
22481;BME280;11407;56.964;-2.212;2022-09-01T07:20:58;102657.25;;;19.49;43.38
22481;BME280;11407;56.964;-2.212;2022-09-01T07:23:24;102652.25;;;19.56;43.96
22481;BME280;11407;56.964;-2.212;2022-09-01T07:25:50;102655.03;;;19.65;43.97
22481;BME280;11407;56.964;-2.212;2022-09-01T07:28:20;102653.47;;;19.83;43.98
22481;BME280;11407;56.964;-2.212;2022-09-01T07:30:50;102655.81;;;20.08;43.81
22481;BME280;11407;56.964;-2.212;2022-09-01T07:33:18;102640.50;;;20.30;43.47
22481;BME280;11407;56.964;-2.212;2022-09-01T07:35:48;102648.31;;;20.43;43.42
22481;BME280;11407;56.964;-2.212;2022-09-01T07:38:14;102643.44;;;20.57;43.77
22481;BME280;11407;56.964;-2.212;2022-09-01T07:40:44;102640.38;;;20.92;43.23
22481;BME280;11407;56.964;-2.212;2022-09-01T07:43:18;102645.06;;;20.99;43.91
22481;BME280;11407;56.964;-2.212;2022-09-01T07:45:50;102640.13;;;21.04;43.44
22481;BME280;11407;56.964;-2.212;2022-09-01T07:48:18;102649.66;;;21.17;43.37
22481;BME280;11407;56.964;-2.212;2022-09-01T07:50:49;102646.28;;;21.53;42.96
22481;BME280;11407;56.964;-2.212;2022-09-01T07:53:27;102644.19;;;21.47;43.65
22481;BME280;11407;56.964;-2.212;2022-09-01T07:55:57;102653.81;;;21.78;42.99
22481;BME280;11407;56.964;-2.212;2022-09-01T07:58:25;102644.63;;;22.09;42.70
22481;BME280;11407;56.964;-2.212;2022-09-01T08:00:52;102644.06;;;22.15;42.62
22481;BME280;11407;56.964;-2.212;2022-09-01T08:03:22;102641.31;;;22.43;42.04
22481;BME280;11407;56.964;-2.212;2022-09-01T08:05:48;102644.38;;;22.58;41.91
22481;BME280;11407;56.964;-2.212;2022-09-01T08:08:18;102642.56;;;22.58;42.42
22481;BME280;11407;56.964;-2.212;2022-09-01T08:10:45;102636.72;;;22.72;41.95
22481;BME280;11407;56.964;-2.212;2022-09-01T08:13:11;102630.44;;;22.81;42.08
22481;BME280;11407;56.964;-2.212;2022-09-01T08:15:38;102628.97;;;22.96;42.26
22481;BME280;11407;56.964;-2.212;2022-09-01T08:18:05;102625.09;;;23.08;41.95
22481;BME280;11407;56.964;-2.212;2022-09-01T08:20:32;102626.34;;;23.13;42.00
22481;BME280;11407;56.964;-2.212;2022-09-01T08:23:03;102628.91;;;23.32;41.62
22481;BME280;11407;56.964;-2.212;2022-09-01T08:25:30;102626.69;;;23.45;41.92
22481;BME280;11407;56.964;-2.212;2022-09-01T08:27:55;102630.84;;;23.57;41.23
22481;BME280;11407;56.964;-2.212;2022-09-01T08:30:21;102624.13;;;22.99;43.11
22481;BME280;11407;56.964;-2.212;2022-09-01T08:32:47;102624.25;;;23.07;42.88
22481;BME280;11407;56.964;-2.212;2022-09-01T08:35:13;102620.97;;;23.13;42.97
22481;BME280;11407;56.964;-2.212;2022-09-01T08:37:40;102626.63;;;23.37;42.68
22481;BME280;11407;56.964;-2.212;2022-09-01T08:40:11;102627.00;;;23.60;42.44
22481;BME280;11407;56.964;-2.212;2022-09-01T08:42:47;102625.03;;;23.79;41.87
22481;BME280;11407;56.964;-2.212;2022-09-01T08:45:26;102611.47;;;23.71;42.28
22481;BME280;11407;56.964;-2.212;2022-09-01T08:47:54;102614.00;;;23.90;42.29
22481;BME280;11407;56.964;-2.212;2022-09-01T08:50:22;102616.72;;;24.15;41.85
22481;BME280;11407;56.964;-2.212;2022-09-01T08:52:57;102613.13;;;24.32;41.48
22481;BME280;11407;56.964;-2.212;2022-09-01T08:55:34;102616.00;;;24.56;41.58
22481;BME280;11407;56.964;-2.212;2022-09-01T08:58:03;102610.97;;;24.61;41.52
22481;BME280;11407;56.964;-2.212;2022-09-01T09:00:40;102608.63;;;24.66;41.68
22481;BME280;11407;56.964;-2.212;2022-09-01T09:03:30;102610.00;;;24.70;41.81
22481;BME280;11407;56.964;-2.212;2022-09-01T09:09:12;102608.47;;;25.09;41.44
22481;BME280;11407;56.964;-2.212;2022-09-01T09:17:10;102595.97;;;25.08;41.79
22481;BME280;11407;56.964;-2.212;2022-09-01T09:19:42;102591.72;;;25.39;40.98
22481;BME280;11407;56.964;-2.212;2022-09-01T09:22:15;102587.50;;;25.44;41.61
22481;BME280;11407;56.964;-2.212;2022-09-01T09:24:51;102580.03;;;25.38;41.74
22481;BME280;11407;56.964;-2.212;2022-09-01T09:29:56;102576.19;;;25.64;41.10
22481;BME280;11407;56.964;-2.212;2022-09-01T09:32:24;102578.25;;;25.78;41.06
22481;BME280;11407;56.964;-2.212;2022-09-01T09:35:31;102579.75;;;25.97;40.22
22481;BME280;11407;56.964;-2.212;2022-09-01T09:41:13;102564.56;;;26.04;41.13
22481;BME280;11407;56.964;-2.212;2022-09-01T09:54:24;102564.19;;;26.77;40.16
22481;BME280;11407;56.964;-2.212;2022-09-01T09:59:45;102558.47;;;27.02;39.60
22481;BME280;11407;56.964;-2.212;2022-09-01T10:04:44;102552.34;;;27.00;39.63
22481;BME280;11407;56.964;-2.212;2022-09-01T10:07:36;102558.19;;;27.20;39.10
22481;BME280;11407;56.964;-2.212;2022-09-01T10:13:17;102552.50;;;27.37;39.57
22481;BME280;11407;56.964;-2.212;2022-09-01T10:15:48;102547.59;;;27.55;39.54
22481;BME280;11407;56.964;-2.212;2022-09-01T10:18:21;102539.56;;;27.61;39.39
22481;BME280;11407;56.964;-2.212;2022-09-01T10:23:19;102535.94;;;27.77;38.89
22481;BME280;11407;56.964;-2.212;2022-09-01T10:25:46;102528.31;;;27.72;38.99
22481;BME280;11407;56.964;-2.212;2022-09-01T10:28:17;102523.88;;;27.79;38.96
22481;BME280;11407;56.964;-2.212;2022-09-01T10:30:44;102528.28;;;28.09;38.37
22481;BME280;11407;56.964;-2.212;2022-09-01T10:33:14;102524.75;;;28.09;38.39
22481;BME280;11407;56.964;-2.212;2022-09-01T10:35:43;102524.31;;;28.34;37.98
22481;BME280;11407;56.964;-2.212;2022-09-01T10:38:19;102522.56;;;28.41;37.23
22481;BME280;11407;56.964;-2.212;2022-09-01T10:40:46;102518.59;;;28.43;37.91
22481;BME280;11407;56.964;-2.212;2022-09-01T10:43:26;102512.41;;;28.21;37.51
22481;BME280;11407;56.964;-2.212;2022-09-01T10:45:54;102510.53;;;28.36;37.98
22481;BME280;11407;56.964;-2.212;2022-09-01T10:50:46;102497.69;;;28.73;37.38
22481;BME280;11407;56.964;-2.212;2022-09-01T10:56:04;102496.78;;;29.01;37.49
22481;BME280;11407;56.964;-2.212;2022-09-01T10:58:38;102498.84;;;28.99;37.24
22481;BME280;11407;56.964;-2.212;2022-09-01T11:01:08;102505.50;;;28.97;37.54
22481;BME280;11407;56.964;-2.212;2022-09-01T11:03:36;102493.75;;;29.11;37.14
22481;BME280;11407;56.964;-2.212;2022-09-01T11:06:05;102487.53;;;29.17;36.99
22481;BME280;11407;56.964;-2.212;2022-09-01T11:13:52;102488.56;;;29.36;36.22
22481;BME280;11407;56.964;-2.212;2022-09-01T11:18:50;102491.53;;;29.62;35.89
22481;BME280;11407;56.964;-2.212;2022-09-01T11:21:27;102491.28;;;29.57;34.66
22481;BME280;11407;56.964;-2.212;2022-09-01T11:26:57;102490.84;;;29.81;36.00
22481;BME280;11407;56.964;-2.212;2022-09-01T11:29:57;102477.84;;;29.77;34.80
22481;BME280;11407;56.964;-2.212;2022-09-01T11:32:30;102486.97;;;29.69;35.43
22481;BME280;11407;56.964;-2.212;2022-09-01T11:34:56;102490.25;;;29.86;35.76
22481;BME280;11407;56.964;-2.212;2022-09-01T11:37:24;102491.59;;;29.96;35.24
22481;BME280;11407;56.964;-2.212;2022-09-01T11:39:54;102494.53;;;29.95;34.75
22481;BME280;11407;56.964;-2.212;2022-09-01T11:42:31;102492.50;;;29.82;35.10
22481;BME280;11407;56.964;-2.212;2022-09-01T11:45:20;102486.47;;;29.87;33.90
22481;BME280;11407;56.964;-2.212;2022-09-01T11:47:48;102483.03;;;29.72;35.32
22481;BME280;11407;56.964;-2.212;2022-09-01T11:50:20;102485.94;;;29.70;35.44
22481;BME280;11407;56.964;-2.212;2022-09-01T11:55:40;102473.94;;;29.58;34.94
22481;BME280;11407;56.964;-2.212;2022-09-01T11:58:10;102481.00;;;29.53;35.36
22481;BME280;11407;56.964;-2.212;2022-09-01T12:00:39;102471.16;;;29.52;35.20
22481;BME280;11407;56.964;-2.212;2022-09-01T12:03:19;102476.31;;;29.40;35.26
22481;BME280;11407;56.964;-2.212;2022-09-01T12:05:46;102470.66;;;29.42;35.72
22481;BME280;11407;56.964;-2.212;2022-09-01T12:08:16;102476.41;;;29.53;35.81
22481;BME280;11407;56.964;-2.212;2022-09-01T12:10:43;102477.34;;;29.67;35.28
22481;BME280;11407;56.964;-2.212;2022-09-01T12:13:21;102474.84;;;29.65;34.56
22481;BME280;11407;56.964;-2.212;2022-09-01T12:15:55;102473.81;;;29.45;35.36
22481;BME280;11407;56.964;-2.212;2022-09-01T12:18:25;102463.16;;;29.44;35.70
22481;BME280;11407;56.964;-2.212;2022-09-01T12:20:53;102460.88;;;29.47;35.68
22481;BME280;11407;56.964;-2.212;2022-09-01T12:23:31;102466.69;;;29.65;34.84
22481;BME280;11407;56.964;-2.212;2022-09-01T12:26:01;102462.63;;;29.55;35.26
22481;BME280;11407;56.964;-2.212;2022-09-01T12:28:28;102467.75;;;29.43;35.39
22481;BME280;11407;56.964;-2.212;2022-09-01T12:31:05;102461.69;;;29.41;35.21
22481;BME280;11407;56.964;-2.212;2022-09-01T12:33:32;102453.97;;;29.45;35.73
22481;BME280;11407;56.964;-2.212;2022-09-01T12:38:40;102455.69;;;29.52;35.42
22481;BME280;11407;56.964;-2.212;2022-09-01T12:41:41;102448.19;;;29.54;35.04
22481;BME280;11407;56.964;-2.212;2022-09-01T12:44:59;102452.28;;;29.23;35.30
22481;BME280;11407;56.964;-2.212;2022-09-01T12:49:59;102447.56;;;29.32;35.72
22481;BME280;11407;56.964;-2.212;2022-09-01T12:52:29;102449.63;;;29.30;36.00
22481;BME280;11407;56.964;-2.212;2022-09-01T12:57:25;102443.69;;;29.20;35.80
22481;BME280;11407;56.964;-2.212;2022-09-01T13:00:28;102446.13;;;29.15;35.52
22481;BME280;11407;56.964;-2.212;2022-09-01T13:08:00;102438.19;;;29.13;35.66
22481;BME280;11407;56.964;-2.212;2022-09-01T13:10:31;102426.47;;;29.13;35.42
22481;BME280;11407;56.964;-2.212;2022-09-01T13:12:58;102423.91;;;29.05;35.88
22481;BME280;11407;56.964;-2.212;2022-09-01T13:15:24;102429.53;;;29.03;35.83
22481;BME280;11407;56.964;-2.212;2022-09-01T13:17:51;102426.34;;;29.00;36.23
22481;BME280;11407;56.964;-2.212;2022-09-01T13:20:17;102425.13;;;29.02;36.49
22481;BME280;11407;56.964;-2.212;2022-09-01T13:22:43;102416.56;;;29.05;36.71
22481;BME280;11407;56.964;-2.212;2022-09-01T13:25:13;102415.31;;;29.01;36.41
22481;BME280;11407;56.964;-2.212;2022-09-01T13:27:40;102413.91;;;29.12;35.97
22481;BME280;11407;56.964;-2.212;2022-09-01T13:30:10;102419.88;;;29.01;36.62
22481;BME280;11407;56.964;-2.212;2022-09-01T13:32:36;102415.75;;;28.84;36.20
22481;BME280;11407;56.964;-2.212;2022-09-01T13:35:02;102419.81;;;28.94;36.92
22481;BME280;11407;56.964;-2.212;2022-09-01T13:37:27;102411.03;;;28.92;36.90
22481;BME280;11407;56.964;-2.212;2022-09-01T13:39:53;102412.53;;;28.95;36.66
22481;BME280;11407;56.964;-2.212;2022-09-01T13:42:18;102404.81;;;28.98;36.64
22481;BME280;11407;56.964;-2.212;2022-09-01T13:44:44;102405.25;;;29.02;36.72
22481;BME280;11407;56.964;-2.212;2022-09-01T13:47:11;102410.19;;;28.92;36.57
22481;BME280;11407;56.964;-2.212;2022-09-01T13:49:37;102405.44;;;28.58;37.60
22481;BME280;11407;56.964;-2.212;2022-09-01T13:52:02;102403.22;;;28.83;36.76
22481;BME280;11407;56.964;-2.212;2022-09-01T13:54:28;102401.94;;;28.64;37.03
22481;BME280;11407;56.964;-2.212;2022-09-01T13:56:53;102398.13;;;28.59;37.16
22481;BME280;11407;56.964;-2.212;2022-09-01T13:59:18;102391.97;;;28.71;37.23
22481;BME280;11407;56.964;-2.212;2022-09-01T14:01:44;102391.44;;;28.76;37.00
22481;BME280;11407;56.964;-2.212;2022-09-01T14:04:10;102382.97;;;28.85;36.82
22481;BME280;11407;56.964;-2.212;2022-09-01T14:06:40;102378.03;;;28.74;37.22